sensor_id;sensor_type;location;lat;lon;timestamp;P1;durP1;ratioP1;P2;durP2;ratioP2
41436;SDS011;27178;49.460;10.850;2022-12-16T00:01:07;18.43;;;15.70;;
41436;SDS011;27178;49.460;10.850;2022-12-16T00:03:36;20.47;;;16.03;;
41436;SDS011;27178;49.460;10.850;2022-12-16T00:06:06;18.20;;;15.10;;
41436;SDS011;27178;49.460;10.850;2022-12-16T00:08:35;19.30;;;16.53;;
41436;SDS011;27178;49.460;10.850;2022-12-16T00:11:06;18.13;;;15.40;;
41436;SDS011;27178;49.460;10.850;2022-12-16T00:13:35;20.40;;;15.60;;
41436;SDS011;27178;49.460;10.850;2022-12-16T00:16:06;18.33;;;15.00;;
41436;SDS011;27178;49.460;10.850;2022-12-16T00:18:37;18.27;;;15.40;;
41436;SDS011;27178;49.460;10.850;2022-12-16T00:21:06;18.47;;;15.13;;
41436;SDS011;27178;49.460;10.850;2022-12-16T00:23:37;16.53;;;14.07;;
41436;SDS011;27178;49.460;10.850;2022-12-16T00:26:08;18.67;;;14.57;;
41436;SDS011;27178;49.460;10.850;2022-12-16T00:28:37;18.30;;;14.80;;
41436;SDS011;27178;49.460;10.850;2022-12-16T00:31:06;17.70;;;14.57;;
41436;SDS011;27178;49.460;10.850;2022-12-16T00:33:35;17.90;;;15.17;;
41436;SDS011;27178;49.460;10.850;2022-12-16T00:36:03;16.77;;;14.30;;
41436;SDS011;27178;49.460;10.850;2022-12-16T00:38:33;17.93;;;15.07;;
41436;SDS011;27178;49.460;10.850;2022-12-16T00:41:01;18.73;;;14.60;;
41436;SDS011;27178;49.460;10.850;2022-12-16T00:43:31;16.93;;;14.53;;
41436;SDS011;27178;49.460;10.850;2022-12-16T00:46:00;15.43;;;13.80;;
41436;SDS011;27178;49.460;10.850;2022-12-16T00:48:29;16.73;;;14.00;;
41436;SDS011;27178;49.460;10.850;2022-12-16T00:50:57;18.50;;;14.27;;
41436;SDS011;27178;49.460;10.850;2022-12-16T00:53:25;15.67;;;13.27;;
41436;SDS011;27178;49.460;10.850;2022-12-16T00:56:00;16.10;;;13.53;;
41436;SDS011;27178;49.460;10.850;2022-12-16T00:58:29;16.50;;;14.07;;
41436;SDS011;27178;49.460;10.850;2022-12-16T01:00:59;15.67;;;13.87;;
41436;SDS011;27178;49.460;10.850;2022-12-16T01:03:28;16.20;;;13.87;;
41436;SDS011;27178;49.460;10.850;2022-12-16T01:05:57;17.27;;;13.47;;
41436;SDS011;27178;49.460;10.850;2022-12-16T01:08:26;16.13;;;13.37;;
41436;SDS011;27178;49.460;10.850;2022-12-16T01:10:55;16.80;;;13.40;;
41436;SDS011;27178;49.460;10.850;2022-12-16T01:13:24;18.20;;;14.47;;
41436;SDS011;27178;49.460;10.850;2022-12-16T01:15:53;18.23;;;13.97;;
41436;SDS011;27178;49.460;10.850;2022-12-16T01:18:23;16.07;;;14.03;;
41436;SDS011;27178;49.460;10.850;2022-12-16T01:20:51;14.60;;;12.60;;
41436;SDS011;27178;49.460;10.850;2022-12-16T01:23:20;17.17;;;14.07;;
41436;SDS011;27178;49.460;10.850;2022-12-16T01:25:50;16.90;;;13.87;;
41436;SDS011;27178;49.460;10.850;2022-12-16T01:28:20;15.73;;;13.53;;
41436;SDS011;27178;49.460;10.850;2022-12-16T01:30:49;18.17;;;14.23;;
41436;SDS011;27178;49.460;10.850;2022-12-16T01:33:24;16.30;;;13.20;;
41436;SDS011;27178;49.460;10.850;2022-12-16T01:35:56;15.70;;;12.93;;
41436;SDS011;27178;49.460;10.850;2022-12-16T01:38:26;14.90;;;12.33;;
41436;SDS011;27178;49.460;10.850;2022-12-16T01:40:54;15.07;;;12.77;;
41436;SDS011;27178;49.460;10.850;2022-12-16T01:43:24;14.93;;;12.73;;
41436;SDS011;27178;49.460;10.850;2022-12-16T01:45:55;13.73;;;12.27;;
41436;SDS011;27178;49.460;10.850;2022-12-16T01:48:31;15.17;;;13.43;;
41436;SDS011;27178;49.460;10.850;2022-12-16T01:51:07;16.70;;;13.23;;
41436;SDS011;27178;49.460;10.850;2022-12-16T01:53:38;14.57;;;13.00;;
41436;SDS011;27178;49.460;10.850;2022-12-16T01:56:10;16.20;;;13.23;;
41436;SDS011;27178;49.460;10.850;2022-12-16T01:58:42;15.70;;;12.30;;
41436;SDS011;27178;49.460;10.850;2022-12-16T02:01:12;14.50;;;12.93;;
41436;SDS011;27178;49.460;10.850;2022-12-16T02:03:43;16.00;;;14.03;;
41436;SDS011;27178;49.460;10.850;2022-12-16T02:06:13;14.50;;;12.83;;
41436;SDS011;27178;49.460;10.850;2022-12-16T02:08:41;15.20;;;12.70;;
41436;SDS011;27178;49.460;10.850;2022-12-16T02:11:14;15.83;;;13.47;;
41436;SDS011;27178;49.460;10.850;2022-12-16T02:17:06;14.00;;;12.50;;
41436;SDS011;27178;49.460;10.850;2022-12-16T02:19:55;15.47;;;13.27;;
41436;SDS011;27178;49.460;10.850;2022-12-16T02:22:50;15.33;;;12.97;;
41436;SDS011;27178;49.460;10.850;2022-12-16T02:25:36;14.77;;;12.83;;
41436;SDS011;27178;49.460;10.850;2022-12-16T02:28:22;16.67;;;12.80;;
41436;SDS011;27178;49.460;10.850;2022-12-16T02:31:06;17.43;;;13.63;;
41436;SDS011;27178;49.460;10.850;2022-12-16T02:33:51;17.60;;;13.70;;
41436;SDS011;27178;49.460;10.850;2022-12-16T02:36:39;14.43;;;12.90;;
41436;SDS011;27178;49.460;10.850;2022-12-16T02:39:18;14.50;;;12.67;;
41436;SDS011;27178;49.460;10.850;2022-12-16T02:41:49;14.77;;;12.63;;
41436;SDS011;27178;49.460;10.850;2022-12-16T02:44:25;16.17;;;12.93;;
41436;SDS011;27178;49.460;10.850;2022-12-16T02:47:04;15.67;;;12.83;;
41436;SDS011;27178;49.460;10.850;2022-12-16T02:49:44;14.90;;;12.03;;
41436;SDS011;27178;49.460;10.850;2022-12-16T02:52:14;14.53;;;12.43;;
41436;SDS011;27178;49.460;10.850;2022-12-16T02:54:46;16.07;;;14.37;;
41436;SDS011;27178;49.460;10.850;2022-12-16T03:00:32;14.97;;;12.90;;
41436;SDS011;27178;49.460;10.850;2022-12-16T03:03:09;14.23;;;12.47;;
41436;SDS011;27178;49.460;10.850;2022-12-16T03:05:44;14.83;;;12.37;;
41436;SDS011;27178;49.460;10.850;2022-12-16T03:08:14;14.23;;;12.73;;
41436;SDS011;27178;49.460;10.850;2022-12-16T03:10:49;15.13;;;12.87;;
41436;SDS011;27178;49.460;10.850;2022-12-16T03:13:20;15.17;;;13.03;;
41436;SDS011;27178;49.460;10.850;2022-12-16T03:15:51;14.10;;;12.60;;
41436;SDS011;27178;49.460;10.850;2022-12-16T03:18:23;15.17;;;12.90;;
41436;SDS011;27178;49.460;10.850;2022-12-16T03:20:54;14.77;;;12.53;;
41436;SDS011;27178;49.460;10.850;2022-12-16T03:23:27;14.30;;;12.47;;
41436;SDS011;27178;49.460;10.850;2022-12-16T03:25:59;16.53;;;13.70;;
41436;SDS011;27178;49.460;10.850;2022-12-16T03:28:34;14.53;;;12.40;;
41436;SDS011;27178;49.460;10.850;2022-12-16T03:31:13;14.30;;;12.17;;
41436;SDS011;27178;49.460;10.850;2022-12-16T03:33:48;14.30;;;11.93;;
41436;SDS011;27178;49.460;10.850;2022-12-16T03:36:23;15.90;;;13.53;;
41436;SDS011;27178;49.460;10.850;2022-12-16T03:38:53;14.77;;;12.87;;
41436;SDS011;27178;49.460;10.850;2022-12-16T03:41:24;13.80;;;12.30;;
41436;SDS011;27178;49.460;10.850;2022-12-16T03:43:53;14.23;;;12.33;;
41436;SDS011;27178;49.460;10.850;2022-12-16T03:46:22;14.20;;;12.23;;
41436;SDS011;27178;49.460;10.850;2022-12-16T03:48:52;14.87;;;12.10;;
41436;SDS011;27178;49.460;10.850;2022-12-16T03:51:20;13.87;;;11.50;;
41436;SDS011;27178;49.460;10.850;2022-12-16T03:53:50;14.57;;;12.17;;
41436;SDS011;27178;49.460;10.850;2022-12-16T03:56:18;14.27;;;12.13;;
41436;SDS011;27178;49.460;10.850;2022-12-16T03:58:46;13.37;;;11.90;;
41436;SDS011;27178;49.460;10.850;2022-12-16T04:01:14;14.37;;;12.53;;
41436;SDS011;27178;49.460;10.850;2022-12-16T04:03:43;14.83;;;12.33;;
41436;SDS011;27178;49.460;10.850;2022-12-16T04:06:13;13.63;;;11.93;;
41436;SDS011;27178;49.460;10.850;2022-12-16T04:08:44;13.53;;;11.27;;
41436;SDS011;27178;49.460;10.850;2022-12-16T04:11:13;13.87;;;11.83;;
41436;SDS011;27178;49.460;10.850;2022-12-16T04:13:59;12.83;;;11.40;;
41436;SDS011;27178;49.460;10.850;2022-12-16T04:16:46;14.17;;;12.50;;
41436;SDS011;27178;49.460;10.850;2022-12-16T04:19:32;15.50;;;11.83;;
41436;SDS011;27178;49.460;10.850;2022-12-16T04:22:22;12.27;;;10.93;;
41436;SDS011;27178;49.460;10.850;2022-12-16T04:25:11;12.13;;;10.83;;
41436;SDS011;27178;49.460;10.850;2022-12-16T04:27:42;13.50;;;11.67;;
41436;SDS011;27178;49.460;10.850;2022-12-16T04:30:12;12.73;;;11.07;;
41436;SDS011;27178;49.460;10.850;2022-12-16T04:32:50;11.87;;;10.07;;
41436;SDS011;27178;49.460;10.850;2022-12-16T04:35:37;13.03;;;11.13;;
41436;SDS011;27178;49.460;10.850;2022-12-16T04:38:25;12.63;;;11.30;;
41436;SDS011;27178;49.460;10.850;2022-12-16T04:41:11;11.57;;;10.17;;
41436;SDS011;27178;49.460;10.850;2022-12-16T04:43:57;13.90;;;10.03;;
41436;SDS011;27178;49.460;10.850;2022-12-16T04:46:42;12.00;;;10.03;;
41436;SDS011;27178;49.460;10.850;2022-12-16T04:49:28;11.50;;;10.03;;
41436;SDS011;27178;49.460;10.850;2022-12-16T04:52:14;10.70;;;9.30;;
41436;SDS011;27178;49.460;10.850;2022-12-16T04:55:02;11.67;;;9.50;;
41436;SDS011;27178;49.460;10.850;2022-12-16T04:57:50;10.77;;;9.17;;
41436;SDS011;27178;49.460;10.850;2022-12-16T05:00:36;10.87;;;9.60;;
41436;SDS011;27178;49.460;10.850;2022-12-16T05:03:22;9.30;;;8.30;;
41436;SDS011;27178;49.460;10.850;2022-12-16T05:06:09;10.50;;;9.30;;
41436;SDS011;27178;49.460;10.850;2022-12-16T05:08:55;9.33;;;8.33;;
41436;SDS011;27178;49.460;10.850;2022-12-16T05:11:41;11.00;;;9.53;;
41436;SDS011;27178;49.460;10.850;2022-12-16T05:14:28;10.10;;;9.03;;
41436;SDS011;27178;49.460;10.850;2022-12-16T05:17:13;9.57;;;8.57;;
41436;SDS011;27178;49.460;10.850;2022-12-16T05:20:00;9.07;;;8.13;;
41436;SDS011;27178;49.460;10.850;2022-12-16T05:22:46;9.20;;;8.30;;
41436;SDS011;27178;49.460;10.850;2022-12-16T05:25:31;11.67;;;9.70;;
41436;SDS011;27178;49.460;10.850;2022-12-16T05:28:18;10.67;;;8.63;;
41436;SDS011;27178;49.460;10.850;2022-12-16T05:31:04;8.80;;;8.00;;
41436;SDS011;27178;49.460;10.850;2022-12-16T05:33:46;12.53;;;9.47;;
41436;SDS011;27178;49.460;10.850;2022-12-16T05:36:32;10.03;;;7.90;;
41436;SDS011;27178;49.460;10.850;2022-12-16T05:39:18;9.60;;;8.07;;
41436;SDS011;27178;49.460;10.850;2022-12-16T05:42:03;9.60;;;8.60;;
41436;SDS011;27178;49.460;10.850;2022-12-16T05:44:51;10.77;;;9.00;;
41436;SDS011;27178;49.460;10.850;2022-12-16T05:47:38;10.73;;;8.57;;
41436;SDS011;27178;49.460;10.850;2022-12-16T05:50:23;11.13;;;8.53;;
41436;SDS011;27178;49.460;10.850;2022-12-16T05:53:10;8.73;;;7.57;;
41436;SDS011;27178;49.460;10.850;2022-12-16T05:55:56;10.67;;;8.40;;
41436;SDS011;27178;49.460;10.850;2022-12-16T05:58:41;8.40;;;7.53;;
41436;SDS011;27178;49.460;10.850;2022-12-16T06:04:41;8.53;;;7.63;;
41436;SDS011;27178;49.460;10.850;2022-12-16T06:07:26;9.47;;;8.30;;
41436;SDS011;27178;49.460;10.850;2022-12-16T06:10:12;9.73;;;8.30;;
41436;SDS011;27178;49.460;10.850;2022-12-16T06:12:58;9.33;;;8.10;;
41436;SDS011;27178;49.460;10.850;2022-12-16T06:15:44;9.07;;;8.23;;
41436;SDS011;27178;49.460;10.850;2022-12-16T06:18:35;8.40;;;7.60;;
41436;SDS011;27178;49.460;10.850;2022-12-16T06:21:22;9.60;;;8.60;;
41436;SDS011;27178;49.460;10.850;2022-12-16T06:24:07;8.43;;;7.63;;
41436;SDS011;27178;49.460;10.850;2022-12-16T06:27:05;8.67;;;7.77;;
41436;SDS011;27178;49.460;10.850;2022-12-16T06:29:50;8.50;;;7.60;;
41436;SDS011;27178;49.460;10.850;2022-12-16T06:32:36;8.63;;;7.47;;
41436;SDS011;27178;49.460;10.850;2022-12-16T06:35:23;9.17;;;8.27;;
41436;SDS011;27178;49.460;10.850;2022-12-16T06:38:09;8.50;;;7.60;;
41436;SDS011;27178;49.460;10.850;2022-12-16T06:40:55;9.47;;;8.37;;
41436;SDS011;27178;49.460;10.850;2022-12-16T06:43:41;8.57;;;7.67;;
41436;SDS011;27178;49.460;10.850;2022-12-16T06:46:26;8.57;;;7.77;;
41436;SDS011;27178;49.460;10.850;2022-12-16T06:49:12;9.77;;;8.33;;
41436;SDS011;27178;49.460;10.850;2022-12-16T06:51:58;9.00;;;8.10;;
41436;SDS011;27178;49.460;10.850;2022-12-16T06:54:48;8.77;;;7.87;;
41436;SDS011;27178;49.460;10.850;2022-12-16T06:57:33;9.37;;;8.43;;
41436;SDS011;27178;49.460;10.850;2022-12-16T07:00:19;8.67;;;7.87;;
41436;SDS011;27178;49.460;10.850;2022-12-16T07:03:05;8.80;;;7.90;;
41436;SDS011;27178;49.460;10.850;2022-12-16T07:06:01;9.07;;;8.23;;
41436;SDS011;27178;49.460;10.850;2022-12-16T07:08:48;8.37;;;7.47;;
41436;SDS011;27178;49.460;10.850;2022-12-16T07:11:30;10.63;;;8.57;;
41436;SDS011;27178;49.460;10.850;2022-12-16T07:14:16;10.10;;;9.03;;
41436;SDS011;27178;49.460;10.850;2022-12-16T07:17:02;8.80;;;7.97;;
41436;SDS011;27178;49.460;10.850;2022-12-16T07:19:48;10.43;;;9.27;;
41436;SDS011;27178;49.460;10.850;2022-12-16T07:22:33;10.17;;;9.13;;
41436;SDS011;27178;49.460;10.850;2022-12-16T07:25:36;8.97;;;8.07;;
41436;SDS011;27178;49.460;10.850;2022-12-16T07:28:22;8.70;;;7.80;;
41436;SDS011;27178;49.460;10.850;2022-12-16T07:31:08;8.63;;;7.73;;
41436;SDS011;27178;49.460;10.850;2022-12-16T07:33:54;8.20;;;7.23;;
41436;SDS011;27178;49.460;10.850;2022-12-16T07:36:39;8.57;;;7.00;;
41436;SDS011;27178;49.460;10.850;2022-12-16T07:39:33;8.33;;;7.53;;
41436;SDS011;27178;49.460;10.850;2022-12-16T07:42:22;8.50;;;7.60;;
41436;SDS011;27178;49.460;10.850;2022-12-16T07:45:11;7.77;;;6.97;;
41436;SDS011;27178;49.460;10.850;2022-12-16T07:47:57;9.07;;;7.43;;
41436;SDS011;27178;49.460;10.850;2022-12-16T07:50:42;7.87;;;7.10;;
41436;SDS011;27178;49.460;10.850;2022-12-16T07:53:28;8.10;;;7.30;;
41436;SDS011;27178;49.460;10.850;2022-12-16T07:56:14;8.17;;;7.37;;
41436;SDS011;27178;49.460;10.850;2022-12-16T07:59:01;7.80;;;7.00;;
41436;SDS011;27178;49.460;10.850;2022-12-16T08:01:47;8.20;;;7.37;;
41436;SDS011;27178;49.460;10.850;2022-12-16T08:04:34;9.73;;;8.27;;
41436;SDS011;27178;49.460;10.850;2022-12-16T08:07:21;15.77;;;11.57;;
41436;SDS011;27178;49.460;10.850;2022-12-16T08:10:07;10.50;;;9.37;;
41436;SDS011;27178;49.460;10.850;2022-12-16T08:12:57;11.37;;;10.17;;
41436;SDS011;27178;49.460;10.850;2022-12-16T08:15:52;9.33;;;8.37;;
41436;SDS011;27178;49.460;10.850;2022-12-16T08:18:38;10.47;;;8.60;;
41436;SDS011;27178;49.460;10.850;2022-12-16T08:21:24;9.70;;;8.70;;
41436;SDS011;27178;49.460;10.850;2022-12-16T08:24:10;8.93;;;8.03;;
41436;SDS011;27178;49.460;10.850;2022-12-16T08:26:55;9.23;;;7.83;;
41436;SDS011;27178;49.460;10.850;2022-12-16T08:29:41;9.17;;;8.27;;
41436;SDS011;27178;49.460;10.850;2022-12-16T08:32:28;9.87;;;8.80;;
41436;SDS011;27178;49.460;10.850;2022-12-16T08:35:13;9.83;;;8.73;;
41436;SDS011;27178;49.460;10.850;2022-12-16T08:38:00;10.27;;;8.70;;
41436;SDS011;27178;49.460;10.850;2022-12-16T08:40:46;10.30;;;9.20;;
41436;SDS011;27178;49.460;10.850;2022-12-16T08:43:31;11.30;;;9.20;;
41436;SDS011;27178;49.460;10.850;2022-12-16T08:46:18;9.57;;;8.67;;
41436;SDS011;27178;49.460;10.850;2022-12-16T08:49:06;10.07;;;9.07;;
41436;SDS011;27178;49.460;10.850;2022-12-16T08:51:52;10.83;;;9.40;;
41436;SDS011;27178;49.460;10.850;2022-12-16T08:54:38;12.53;;;11.20;;
41436;SDS011;27178;49.460;10.850;2022-12-16T08:57:24;10.70;;;9.60;;
41436;SDS011;27178;49.460;10.850;2022-12-16T09:00:10;9.40;;;8.50;;
41436;SDS011;27178;49.460;10.850;2022-12-16T09:02:57;10.50;;;8.83;;
41436;SDS011;27178;49.460;10.850;2022-12-16T09:05:45;10.20;;;9.17;;
41436;SDS011;27178;49.460;10.850;2022-12-16T09:08:31;9.27;;;8.27;;
41436;SDS011;27178;49.460;10.850;2022-12-16T09:11:17;12.27;;;10.30;;
41436;SDS011;27178;49.460;10.850;2022-12-16T09:14:03;10.67;;;9.33;;
41436;SDS011;27178;49.460;10.850;2022-12-16T09:16:49;9.30;;;8.33;;
41436;SDS011;27178;49.460;10.850;2022-12-16T09:19:34;9.37;;;8.43;;
41436;SDS011;27178;49.460;10.850;2022-12-16T09:22:22;10.13;;;9.13;;
41436;SDS011;27178;49.460;10.850;2022-12-16T09:25:07;10.17;;;9.17;;
41436;SDS011;27178;49.460;10.850;2022-12-16T09:27:53;11.43;;;9.70;;
41436;SDS011;27178;49.460;10.850;2022-12-16T09:30:38;10.37;;;9.27;;
41436;SDS011;27178;49.460;10.850;2022-12-16T09:33:24;10.03;;;9.07;;
41436;SDS011;27178;49.460;10.850;2022-12-16T09:36:10;10.53;;;9.53;;
41436;SDS011;27178;49.460;10.850;2022-12-16T09:38:56;10.40;;;9.40;;
41436;SDS011;27178;49.460;10.850;2022-12-16T09:41:48;11.10;;;10.03;;
41436;SDS011;27178;49.460;10.850;2022-12-16T09:44:44;9.77;;;8.67;;
41436;SDS011;27178;49.460;10.850;2022-12-16T09:47:39;16.30;;;9.77;;
41436;SDS011;27178;49.460;10.850;2022-12-16T09:50:31;10.67;;;9.53;;
41436;SDS011;27178;49.460;10.850;2022-12-16T09:53:22;11.40;;;9.40;;
41436;SDS011;27178;49.460;10.850;2022-12-16T09:56:12;10.53;;;9.43;;
41436;SDS011;27178;49.460;10.850;2022-12-16T09:59:03;11.20;;;9.73;;
41436;SDS011;27178;49.460;10.850;2022-12-16T10:01:55;11.37;;;9.23;;
41436;SDS011;27178;49.460;10.850;2022-12-16T10:04:41;11.00;;;9.90;;
41436;SDS011;27178;49.460;10.850;2022-12-16T10:07:28;12.30;;;10.27;;
41436;SDS011;27178;49.460;10.850;2022-12-16T10:10:21;11.20;;;9.87;;
41436;SDS011;27178;49.460;10.850;2022-12-16T10:13:18;11.97;;;10.33;;
41436;SDS011;27178;49.460;10.850;2022-12-16T10:16:13;10.50;;;9.40;;
41436;SDS011;27178;49.460;10.850;2022-12-16T10:19:05;10.73;;;9.63;;
41436;SDS011;27178;49.460;10.850;2022-12-16T10:21:59;10.53;;;9.43;;
41436;SDS011;27178;49.460;10.850;2022-12-16T10:24:50;11.97;;;10.73;;
41436;SDS011;27178;49.460;10.850;2022-12-16T10:27:48;11.37;;;10.27;;
41436;SDS011;27178;49.460;10.850;2022-12-16T10:30:35;10.10;;;9.10;;
41436;SDS011;27178;49.460;10.850;2022-12-16T10:33:23;12.63;;;10.07;;
41436;SDS011;27178;49.460;10.850;2022-12-16T10:36:13;10.53;;;9.43;;
41436;SDS011;27178;49.460;10.850;2022-12-16T10:39:04;10.93;;;9.87;;
41436;SDS011;27178;49.460;10.850;2022-12-16T10:41:57;10.10;;;9.10;;
41436;SDS011;27178;49.460;10.850;2022-12-16T10:44:47;11.83;;;9.90;;
41436;SDS011;27178;49.460;10.850;2022-12-16T10:47:38;11.20;;;10.00;;
41436;SDS011;27178;49.460;10.850;2022-12-16T10:50:23;11.80;;;10.13;;
41436;SDS011;27178;49.460;10.850;2022-12-16T10:53:11;10.77;;;9.67;;
41436;SDS011;27178;49.460;10.850;2022-12-16T10:56:01;10.37;;;9.33;;
41436;SDS011;27178;49.460;10.850;2022-12-16T10:59:02;10.97;;;9.50;;
41436;SDS011;27178;49.460;10.850;2022-12-16T11:01:55;11.20;;;10.03;;
41436;SDS011;27178;49.460;10.850;2022-12-16T11:04:43;13.47;;;9.87;;
41436;SDS011;27178;49.460;10.850;2022-12-16T11:07:33;11.37;;;10.17;;
41436;SDS011;27178;49.460;10.850;2022-12-16T11:10:27;10.93;;;9.83;;
41436;SDS011;27178;49.460;10.850;2022-12-16T11:13:18;11.53;;;10.27;;
41436;SDS011;27178;49.460;10.850;2022-12-16T11:16:10;11.87;;;10.63;;
41436;SDS011;27178;49.460;10.850;2022-12-16T11:18:56;11.60;;;10.40;;
41436;SDS011;27178;49.460;10.850;2022-12-16T11:21:44;12.70;;;10.83;;
41436;SDS011;27178;49.460;10.850;2022-12-16T11:24:30;13.47;;;12.03;;
41436;SDS011;27178;49.460;10.850;2022-12-16T11:27:20;13.50;;;12.00;;
41436;SDS011;27178;49.460;10.850;2022-12-16T11:30:15;13.37;;;11.97;;
41436;SDS011;27178;49.460;10.850;2022-12-16T11:33:13;12.00;;;10.73;;
41436;SDS011;27178;49.460;10.850;2022-12-16T11:36:07;14.10;;;12.30;;
41436;SDS011;27178;49.460;10.850;2022-12-16T11:38:58;14.23;;;11.00;;
41436;SDS011;27178;49.460;10.850;2022-12-16T11:41:48;13.37;;;11.97;;
41436;SDS011;27178;49.460;10.850;2022-12-16T11:44:40;13.00;;;11.67;;
41436;SDS011;27178;49.460;10.850;2022-12-16T11:47:37;15.13;;;11.53;;
41436;SDS011;27178;49.460;10.850;2022-12-16T11:50:26;14.23;;;12.07;;
41436;SDS011;27178;49.460;10.850;2022-12-16T11:53:20;15.33;;;11.93;;
41436;SDS011;27178;49.460;10.850;2022-12-16T11:56:18;12.40;;;11.10;;
41436;SDS011;27178;49.460;10.850;2022-12-16T11:59:08;12.47;;;11.07;;
41436;SDS011;27178;49.460;10.850;2022-12-16T12:02:01;14.97;;;12.03;;
41436;SDS011;27178;49.460;10.850;2022-12-16T12:04:56;14.00;;;11.30;;
41436;SDS011;27178;49.460;10.850;2022-12-16T12:07:42;13.50;;;11.97;;
41436;SDS011;27178;49.460;10.850;2022-12-16T12:10:42;12.63;;;11.33;;
41436;SDS011;27178;49.460;10.850;2022-12-16T12:16:53;14.33;;;11.50;;
41436;SDS011;27178;49.460;10.850;2022-12-16T12:19:51;14.80;;;12.80;;
41436;SDS011;27178;49.460;10.850;2022-12-16T12:22:46;14.33;;;12.70;;
41436;SDS011;27178;49.460;10.850;2022-12-16T12:25:34;16.17;;;13.90;;
41436;SDS011;27178;49.460;10.850;2022-12-16T12:28:32;15.67;;;13.17;;
41436;SDS011;27178;49.460;10.850;2022-12-16T12:31:34;13.33;;;12.03;;
41436;SDS011;27178;49.460;10.850;2022-12-16T12:34:28;13.30;;;11.43;;
41436;SDS011;27178;49.460;10.850;2022-12-16T12:37:22;14.63;;;12.00;;
41436;SDS011;27178;49.460;10.850;2022-12-16T12:40:22;18.03;;;12.30;;
41436;SDS011;27178;49.460;10.850;2022-12-16T12:43:26;14.03;;;12.20;;
41436;SDS011;27178;49.460;10.850;2022-12-16T12:46:26;14.37;;;12.17;;
41436;SDS011;27178;49.460;10.850;2022-12-16T12:49:20;13.57;;;11.87;;
41436;SDS011;27178;49.460;10.850;2022-12-16T12:52:15;14.10;;;12.07;;
41436;SDS011;27178;49.460;10.850;2022-12-16T12:55:14;13.53;;;12.13;;
41436;SDS011;27178;49.460;10.850;2022-12-16T12:58:06;15.03;;;11.90;;
41436;SDS011;27178;49.460;10.850;2022-12-16T13:00:54;12.73;;;11.40;;
41436;SDS011;27178;49.460;10.850;2022-12-16T13:03:48;14.77;;;12.50;;
41436;SDS011;27178;49.460;10.850;2022-12-16T13:06:39;15.00;;;13.20;;
41436;SDS011;27178;49.460;10.850;2022-12-16T13:09:28;13.53;;;12.07;;
41436;SDS011;27178;49.460;10.850;2022-12-16T13:12:19;14.33;;;11.77;;
41436;SDS011;27178;49.460;10.850;2022-12-16T13:15:14;13.33;;;11.93;;
41436;SDS011;27178;49.460;10.850;2022-12-16T13:18:18;15.00;;;12.83;;
41436;SDS011;27178;49.460;10.850;2022-12-16T13:24:34;12.43;;;10.97;;
41436;SDS011;27178;49.460;10.850;2022-12-16T13:27:26;12.13;;;10.83;;
41436;SDS011;27178;49.460;10.850;2022-12-16T13:30:18;13.57;;;11.97;;
41436;SDS011;27178;49.460;10.850;2022-12-16T13:33:19;12.90;;;11.60;;
41436;SDS011;27178;49.460;10.850;2022-12-16T13:36:07;12.57;;;10.90;;
41436;SDS011;27178;49.460;10.850;2022-12-16T13:38:56;13.27;;;11.23;;
41436;SDS011;27178;49.460;10.850;2022-12-16T13:41:57;12.87;;;11.57;;
41436;SDS011;27178;49.460;10.850;2022-12-16T13:48:01;15.30;;;10.97;;
41436;SDS011;27178;49.460;10.850;2022-12-16T13:50:49;13.17;;;11.20;;
41436;SDS011;27178;49.460;10.850;2022-12-16T13:53:45;13.60;;;11.73;;
41436;SDS011;27178;49.460;10.850;2022-12-16T13:56:37;13.23;;;11.83;;
41436;SDS011;27178;49.460;10.850;2022-12-16T13:59:28;14.37;;;12.23;;
41436;SDS011;27178;49.460;10.850;2022-12-16T14:02:23;14.07;;;11.40;;
41436;SDS011;27178;49.460;10.850;2022-12-16T14:05:13;13.10;;;11.07;;
41436;SDS011;27178;49.460;10.850;2022-12-16T14:08:04;14.23;;;12.33;;
41436;SDS011;27178;49.460;10.850;2022-12-16T14:10:56;13.70;;;12.07;;
41436;SDS011;27178;49.460;10.850;2022-12-16T14:13:49;13.17;;;11.80;;
41436;SDS011;27178;49.460;10.850;2022-12-16T14:16:45;15.47;;;13.47;;
41436;SDS011;27178;49.460;10.850;2022-12-16T14:19:37;13.23;;;11.87;;
41436;SDS011;27178;49.460;10.850;2022-12-16T14:22:39;14.37;;;11.83;;
41436;SDS011;27178;49.460;10.850;2022-12-16T14:25:32;13.10;;;11.70;;
41436;SDS011;27178;49.460;10.850;2022-12-16T14:28:22;14.93;;;13.17;;
41436;SDS011;27178;49.460;10.850;2022-12-16T14:31:14;16.40;;;13.27;;
41436;SDS011;27178;49.460;10.850;2022-12-16T14:34:19;15.13;;;13.13;;
41436;SDS011;27178;49.460;10.850;2022-12-16T14:37:10;14.80;;;13.03;;
41436;SDS011;27178;49.460;10.850;2022-12-16T14:39:57;14.30;;;12.80;;
41436;SDS011;27178;49.460;10.850;2022-12-16T14:42:43;15.70;;;13.03;;
41436;SDS011;27178;49.460;10.850;2022-12-16T14:45:36;14.70;;;12.47;;
41436;SDS011;27178;49.460;10.850;2022-12-16T14:48:25;14.50;;;12.53;;
41436;SDS011;27178;49.460;10.850;2022-12-16T14:51:22;14.60;;;12.27;;
41436;SDS011;27178;49.460;10.850;2022-12-16T14:54:19;17.43;;;12.73;;
41436;SDS011;27178;49.460;10.850;2022-12-16T14:57:11;15.00;;;13.23;;
41436;SDS011;27178;49.460;10.850;2022-12-16T15:00:00;15.40;;;12.97;;
41436;SDS011;27178;49.460;10.850;2022-12-16T15:02:47;14.63;;;13.03;;
41436;SDS011;27178;49.460;10.850;2022-12-16T15:05:37;14.43;;;12.23;;
41436;SDS011;27178;49.460;10.850;2022-12-16T15:08:24;14.57;;;12.27;;
41436;SDS011;27178;49.460;10.850;2022-12-16T15:11:13;15.43;;;12.00;;
41436;SDS011;27178;49.460;10.850;2022-12-16T15:14:02;14.50;;;12.17;;
41436;SDS011;27178;49.460;10.850;2022-12-16T15:16:49;15.50;;;13.03;;
41436;SDS011;27178;49.460;10.850;2022-12-16T15:19:37;16.93;;;13.37;;
41436;SDS011;27178;49.460;10.850;2022-12-16T15:22:30;13.73;;;12.33;;
41436;SDS011;27178;49.460;10.850;2022-12-16T15:25:20;14.13;;;12.63;;
41436;SDS011;27178;49.460;10.850;2022-12-16T15:28:21;13.97;;;12.47;;
41436;SDS011;27178;49.460;10.850;2022-12-16T15:31:11;14.87;;;12.33;;
41436;SDS011;27178;49.460;10.850;2022-12-16T15:37:14;17.60;;;15.17;;
41436;SDS011;27178;49.460;10.850;2022-12-16T15:40:19;15.57;;;13.27;;
41436;SDS011;27178;49.460;10.850;2022-12-16T15:43:25;15.67;;;14.03;;
41436;SDS011;27178;49.460;10.850;2022-12-16T15:46:17;14.47;;;12.60;;
41436;SDS011;27178;49.460;10.850;2022-12-16T15:49:05;16.63;;;12.07;;
41436;SDS011;27178;49.460;10.850;2022-12-16T15:52:02;14.67;;;12.80;;
41436;SDS011;27178;49.460;10.850;2022-12-16T15:55:24;16.23;;;13.50;;
41436;SDS011;27178;49.460;10.850;2022-12-16T15:58:14;15.33;;;13.43;;
41436;SDS011;27178;49.460;10.850;2022-12-16T16:01:04;16.67;;;14.73;;
41436;SDS011;27178;49.460;10.850;2022-12-16T16:03:52;17.23;;;15.17;;
41436;SDS011;27178;49.460;10.850;2022-12-16T16:06:40;17.13;;;14.83;;
41436;SDS011;27178;49.460;10.850;2022-12-16T16:09:29;18.43;;;15.53;;
41436;SDS011;27178;49.460;10.850;2022-12-16T16:12:18;20.83;;;18.03;;
41436;SDS011;27178;49.460;10.850;2022-12-16T16:15:07;27.30;;;20.53;;
41436;SDS011;27178;49.460;10.850;2022-12-16T16:17:55;26.17;;;21.90;;
41436;SDS011;27178;49.460;10.850;2022-12-16T16:20:42;22.70;;;19.77;;